Poteet, Texas
Current Conditions -  °F | °C
As of 4:20 AM on Friday 31 Oct 2014 (Local Time) from KPEZ Reporting Station
Overcast Overcast  
Wind Chill: 68°   Ceiling: 400
Heat Index: 68°   Visibility: 7mi
Dew Point: 66°   Wind: 0mph
Humidity: 93%   Direction: NA
Pressure: 30.11"   Gusts: NA
Location:  29.04°N, 98.57°W
Report Text: KPEZ 310920Z AUTO 00000KT 7SM OVC004 20/19 A3011 RMK AO2 LTG DSNT ALQS T02000188
Loading
Personal Weather Stations






























Interactive Weather Map
Tropical Storm Tracking
New forecast layout! Learn more

10-Day Weather Forecast

Advertisements
Track Severe Weather on mobile